sensor_id;sensor_type;location;lat;lon;timestamp;P1;durP1;ratioP1;P2;durP2;ratioP2
8058;SDS011;4072;42.668;23.396;2023-05-28T00:02:35;8.10;;;6.97;;
8058;SDS011;4072;42.668;23.396;2023-05-28T00:05:04;8.83;;;6.73;;
8058;SDS011;4072;42.668;23.396;2023-05-28T00:07:33;8.03;;;6.63;;
8058;SDS011;4072;42.668;23.396;2023-05-28T00:10:01;6.93;;;6.23;;
8058;SDS011;4072;42.668;23.396;2023-05-28T00:12:31;7.60;;;6.17;;
8058;SDS011;4072;42.668;23.396;2023-05-28T00:14:58;6.97;;;6.00;;
8058;SDS011;4072;42.668;23.396;2023-05-28T00:17:27;7.40;;;6.70;;
8058;SDS011;4072;42.668;23.396;2023-05-28T00:19:56;7.10;;;6.40;;
8058;SDS011;4072;42.668;23.396;2023-05-28T00:22:25;6.17;;;5.57;;
8058;SDS011;4072;42.668;23.396;2023-05-28T00:24:53;6.90;;;6.30;;
8058;SDS011;4072;42.668;23.396;2023-05-28T00:27:24;7.73;;;6.97;;
8058;SDS011;4072;42.668;23.396;2023-05-28T00:29:52;7.83;;;7.03;;
8058;SDS011;4072;42.668;23.396;2023-05-28T00:32:20;8.60;;;7.77;;
8058;SDS011;4072;42.668;23.396;2023-05-28T00:34:48;9.70;;;7.77;;
8058;SDS011;4072;42.668;23.396;2023-05-28T00:37:18;9.10;;;8.20;;
8058;SDS011;4072;42.668;23.396;2023-05-28T00:39:46;9.00;;;8.10;;
8058;SDS011;4072;42.668;23.396;2023-05-28T00:42:14;8.13;;;7.43;;
8058;SDS011;4072;42.668;23.396;2023-05-28T00:44:42;8.87;;;8.07;;
8058;SDS011;4072;42.668;23.396;2023-05-28T00:47:11;8.33;;;7.53;;
8058;SDS011;4072;42.668;23.396;2023-05-28T00:49:40;10.07;;;8.20;;
8058;SDS011;4072;42.668;23.396;2023-05-28T00:52:09;9.80;;;8.90;;
8058;SDS011;4072;42.668;23.396;2023-05-28T00:54:39;10.10;;;8.70;;
8058;SDS011;4072;42.668;23.396;2023-05-28T00:57:07;8.90;;;8.10;;
8058;SDS011;4072;42.668;23.396;2023-05-28T00:59:35;9.77;;;8.77;;
8058;SDS011;4072;42.668;23.396;2023-05-28T01:02:04;9.23;;;8.33;;
8058;SDS011;4072;42.668;23.396;2023-05-28T01:04:32;10.30;;;8.70;;
8058;SDS011;4072;42.668;23.396;2023-05-28T01:07:00;8.73;;;7.93;;
8058;SDS011;4072;42.668;23.396;2023-05-28T01:09:28;9.50;;;8.60;;
8058;SDS011;4072;42.668;23.396;2023-05-28T01:11:58;9.63;;;8.70;;
8058;SDS011;4072;42.668;23.396;2023-05-28T01:14:27;10.27;;;9.27;;
8058;SDS011;4072;42.668;23.396;2023-05-28T01:16:56;8.97;;;8.07;;
8058;SDS011;4072;42.668;23.396;2023-05-28T01:19:25;9.27;;;8.37;;
8058;SDS011;4072;42.668;23.396;2023-05-28T01:21:56;7.50;;;6.80;;
8058;SDS011;4072;42.668;23.396;2023-05-28T01:24:29;8.80;;;7.90;;
8058;SDS011;4072;42.668;23.396;2023-05-28T01:26:59;7.43;;;6.67;;
8058;SDS011;4072;42.668;23.396;2023-05-28T01:29:27;7.57;;;6.90;;
8058;SDS011;4072;42.668;23.396;2023-05-28T01:31:55;7.63;;;7.03;;
8058;SDS011;4072;42.668;23.396;2023-05-28T01:34:23;7.90;;;7.10;;
8058;SDS011;4072;42.668;23.396;2023-05-28T01:36:54;7.27;;;6.63;;
8058;SDS011;4072;42.668;23.396;2023-05-28T01:39:25;7.50;;;6.43;;
8058;SDS011;4072;42.668;23.396;2023-05-28T01:41:59;6.03;;;5.43;;
8058;SDS011;4072;42.668;23.396;2023-05-28T01:44:29;6.10;;;5.53;;
8058;SDS011;4072;42.668;23.396;2023-05-28T01:46:58;6.00;;;5.40;;
8058;SDS011;4072;42.668;23.396;2023-05-28T01:49:26;6.57;;;4.73;;
8058;SDS011;4072;42.668;23.396;2023-05-28T01:51:55;6.60;;;6.00;;
8058;SDS011;4072;42.668;23.396;2023-05-28T01:54:23;6.00;;;5.40;;
8058;SDS011;4072;42.668;23.396;2023-05-28T01:56:51;5.60;;;4.90;;
8058;SDS011;4072;42.668;23.396;2023-05-28T01:59:20;6.27;;;5.67;;
8058;SDS011;4072;42.668;23.396;2023-05-28T02:01:48;6.10;;;5.60;;
8058;SDS011;4072;42.668;23.396;2023-05-28T02:04:17;6.90;;;5.53;;
8058;SDS011;4072;42.668;23.396;2023-05-28T02:06:45;5.93;;;5.37;;
8058;SDS011;4072;42.668;23.396;2023-05-28T02:09:14;6.30;;;5.70;;
8058;SDS011;4072;42.668;23.396;2023-05-28T02:11:42;7.37;;;5.40;;
8058;SDS011;4072;42.668;23.396;2023-05-28T02:14:10;5.90;;;5.33;;
8058;SDS011;4072;42.668;23.396;2023-05-28T02:16:42;6.17;;;5.67;;
8058;SDS011;4072;42.668;23.396;2023-05-28T02:19:14;5.77;;;5.17;;
8058;SDS011;4072;42.668;23.396;2023-05-28T02:21:43;6.20;;;5.53;;
8058;SDS011;4072;42.668;23.396;2023-05-28T02:24:11;6.00;;;5.23;;
8058;SDS011;4072;42.668;23.396;2023-05-28T02:26:40;5.80;;;5.30;;
8058;SDS011;4072;42.668;23.396;2023-05-28T02:29:08;5.70;;;5.20;;
8058;SDS011;4072;42.668;23.396;2023-05-28T02:31:35;5.03;;;4.63;;
8058;SDS011;4072;42.668;23.396;2023-05-28T02:34:05;4.97;;;4.57;;
8058;SDS011;4072;42.668;23.396;2023-05-28T02:36:34;5.43;;;5.03;;
8058;SDS011;4072;42.668;23.396;2023-05-28T02:39:04;5.97;;;5.47;;
8058;SDS011;4072;42.668;23.396;2023-05-28T02:41:33;4.80;;;4.40;;
8058;SDS011;4072;42.668;23.396;2023-05-28T02:44:01;4.90;;;4.50;;
8058;SDS011;4072;42.668;23.396;2023-05-28T02:46:29;5.63;;;5.13;;
8058;SDS011;4072;42.668;23.396;2023-05-28T02:48:57;5.60;;;4.97;;
8058;SDS011;4072;42.668;23.396;2023-05-28T02:51:27;6.80;;;5.43;;
8058;SDS011;4072;42.668;23.396;2023-05-28T02:53:54;5.60;;;4.80;;
8058;SDS011;4072;42.668;23.396;2023-05-28T02:56:23;5.87;;;5.30;;
8058;SDS011;4072;42.668;23.396;2023-05-28T02:58:51;4.87;;;4.47;;
8058;SDS011;4072;42.668;23.396;2023-05-28T03:01:19;5.27;;;4.80;;
8058;SDS011;4072;42.668;23.396;2023-05-28T03:03:47;5.00;;;4.60;;
8058;SDS011;4072;42.668;23.396;2023-05-28T03:06:15;5.67;;;4.90;;
8058;SDS011;4072;42.668;23.396;2023-05-28T03:08:45;5.90;;;5.37;;
8058;SDS011;4072;42.668;23.396;2023-05-28T03:11:13;6.33;;;4.73;;
8058;SDS011;4072;42.668;23.396;2023-05-28T03:13:41;6.30;;;5.40;;
8058;SDS011;4072;42.668;23.396;2023-05-28T03:16:09;5.90;;;5.40;;
8058;SDS011;4072;42.668;23.396;2023-05-28T03:18:37;5.23;;;4.83;;
8058;SDS011;4072;42.668;23.396;2023-05-28T03:21:05;5.83;;;5.33;;
8058;SDS011;4072;42.668;23.396;2023-05-28T03:23:33;5.67;;;5.17;;
8058;SDS011;4072;42.668;23.396;2023-05-28T03:26:02;6.60;;;5.80;;
8058;SDS011;4072;42.668;23.396;2023-05-28T03:28:30;5.30;;;4.90;;
8058;SDS011;4072;42.668;23.396;2023-05-28T03:30:58;5.70;;;4.97;;
8058;SDS011;4072;42.668;23.396;2023-05-28T03:33:26;5.97;;;5.40;;
8058;SDS011;4072;42.668;23.396;2023-05-28T03:35:55;6.27;;;5.60;;
8058;SDS011;4072;42.668;23.396;2023-05-28T03:38:23;6.90;;;5.43;;
8058;SDS011;4072;42.668;23.396;2023-05-28T03:40:50;6.93;;;5.90;;
8058;SDS011;4072;42.668;23.396;2023-05-28T03:43:20;6.33;;;5.73;;
8058;SDS011;4072;42.668;23.396;2023-05-28T03:45:48;5.67;;;5.17;;
8058;SDS011;4072;42.668;23.396;2023-05-28T03:48:16;6.97;;;5.90;;
8058;SDS011;4072;42.668;23.396;2023-05-28T03:50:44;6.20;;;5.60;;
8058;SDS011;4072;42.668;23.396;2023-05-28T03:53:12;6.00;;;5.50;;
8058;SDS011;4072;42.668;23.396;2023-05-28T03:55:40;6.30;;;5.80;;
8058;SDS011;4072;42.668;23.396;2023-05-28T03:58:09;6.37;;;5.77;;
8058;SDS011;4072;42.668;23.396;2023-05-28T04:00:42;6.23;;;5.63;;
8058;SDS011;4072;42.668;23.396;2023-05-28T04:03:10;5.47;;;4.97;;
8058;SDS011;4072;42.668;23.396;2023-05-28T04:05:38;5.50;;;5.00;;
8058;SDS011;4072;42.668;23.396;2023-05-28T04:08:06;6.90;;;5.70;;
8058;SDS011;4072;42.668;23.396;2023-05-28T04:10:34;7.67;;;5.40;;
8058;SDS011;4072;42.668;23.396;2023-05-28T04:13:02;6.70;;;6.00;;
8058;SDS011;4072;42.668;23.396;2023-05-28T04:15:30;6.00;;;5.50;;
8058;SDS011;4072;42.668;23.396;2023-05-28T04:18:00;6.40;;;5.83;;
8058;SDS011;4072;42.668;23.396;2023-05-28T04:20:28;6.33;;;5.73;;
8058;SDS011;4072;42.668;23.396;2023-05-28T04:22:56;6.43;;;5.83;;
8058;SDS011;4072;42.668;23.396;2023-05-28T04:25:24;6.90;;;6.20;;
8058;SDS011;4072;42.668;23.396;2023-05-28T04:27:52;6.93;;;6.20;;
8058;SDS011;4072;42.668;23.396;2023-05-28T04:30:20;6.17;;;5.57;;
8058;SDS011;4072;42.668;23.396;2023-05-28T04:32:49;6.17;;;5.57;;
8058;SDS011;4072;42.668;23.396;2023-05-28T04:35:19;6.80;;;5.83;;
8058;SDS011;4072;42.668;23.396;2023-05-28T04:37:48;6.57;;;5.97;;
8058;SDS011;4072;42.668;23.396;2023-05-28T04:40:17;6.60;;;6.00;;
8058;SDS011;4072;42.668;23.396;2023-05-28T04:42:45;6.77;;;5.63;;
8058;SDS011;4072;42.668;23.396;2023-05-28T04:45:13;7.90;;;6.73;;
8058;SDS011;4072;42.668;23.396;2023-05-28T04:47:42;6.37;;;5.83;;
8058;SDS011;4072;42.668;23.396;2023-05-28T04:50:10;5.93;;;5.43;;
8058;SDS011;4072;42.668;23.396;2023-05-28T04:52:40;6.37;;;5.77;;
8058;SDS011;4072;42.668;23.396;2023-05-28T04:55:08;6.83;;;6.13;;
8058;SDS011;4072;42.668;23.396;2023-05-28T04:57:38;8.03;;;6.20;;
8058;SDS011;4072;42.668;23.396;2023-05-28T05:00:07;7.23;;;6.30;;
8058;SDS011;4072;42.668;23.396;2023-05-28T05:02:39;6.20;;;5.60;;
8058;SDS011;4072;42.668;23.396;2023-05-28T05:05:08;7.63;;;6.17;;
8058;SDS011;4072;42.668;23.396;2023-05-28T05:07:36;7.03;;;6.33;;
8058;SDS011;4072;42.668;23.396;2023-05-28T05:10:07;7.50;;;6.13;;
8058;SDS011;4072;42.668;23.396;2023-05-28T05:12:36;8.47;;;6.27;;
8058;SDS011;4072;42.668;23.396;2023-05-28T05:15:05;7.50;;;6.73;;
8058;SDS011;4072;42.668;23.396;2023-05-28T05:17:34;12.03;;;6.53;;
8058;SDS011;4072;42.668;23.396;2023-05-28T05:20:02;7.50;;;6.73;;
8058;SDS011;4072;42.668;23.396;2023-05-28T05:22:32;9.77;;;7.07;;
8058;SDS011;4072;42.668;23.396;2023-05-28T05:25:00;8.97;;;6.63;;
8058;SDS011;4072;42.668;23.396;2023-05-28T05:27:30;7.27;;;6.57;;
8058;SDS011;4072;42.668;23.396;2023-05-28T05:29:58;6.73;;;6.03;;
8058;SDS011;4072;42.668;23.396;2023-05-28T05:32:25;7.03;;;6.33;;
8058;SDS011;4072;42.668;23.396;2023-05-28T05:34:53;8.07;;;5.47;;
8058;SDS011;4072;42.668;23.396;2023-05-28T05:37:21;7.03;;;6.33;;
8058;SDS011;4072;42.668;23.396;2023-05-28T05:39:50;7.57;;;6.83;;
8058;SDS011;4072;42.668;23.396;2023-05-28T05:42:18;8.00;;;7.17;;
8058;SDS011;4072;42.668;23.396;2023-05-28T05:44:47;7.50;;;6.77;;
8058;SDS011;4072;42.668;23.396;2023-05-28T05:47:15;8.83;;;7.93;;
8058;SDS011;4072;42.668;23.396;2023-05-28T05:49:43;7.10;;;6.37;;
8058;SDS011;4072;42.668;23.396;2023-05-28T05:52:11;7.17;;;6.03;;
8058;SDS011;4072;42.668;23.396;2023-05-28T05:54:39;7.37;;;6.67;;
8058;SDS011;4072;42.668;23.396;2023-05-28T05:57:08;8.60;;;7.30;;
8058;SDS011;4072;42.668;23.396;2023-05-28T05:59:36;7.27;;;5.47;;
8058;SDS011;4072;42.668;23.396;2023-05-28T06:02:05;7.03;;;6.03;;
8058;SDS011;4072;42.668;23.396;2023-05-28T06:04:33;6.93;;;6.33;;
8058;SDS011;4072;42.668;23.396;2023-05-28T06:07:01;6.77;;;6.17;;
8058;SDS011;4072;42.668;23.396;2023-05-28T06:09:30;6.93;;;6.20;;
8058;SDS011;4072;42.668;23.396;2023-05-28T06:11:58;6.37;;;5.87;;
8058;SDS011;4072;42.668;23.396;2023-05-28T06:14:28;7.60;;;6.50;;
8058;SDS011;4072;42.668;23.396;2023-05-28T06:16:56;8.83;;;6.90;;
8058;SDS011;4072;42.668;23.396;2023-05-28T06:19:25;6.77;;;6.17;;
8058;SDS011;4072;42.668;23.396;2023-05-28T06:21:53;6.57;;;5.97;;
8058;SDS011;4072;42.668;23.396;2023-05-28T06:24:21;8.07;;;5.53;;
8058;SDS011;4072;42.668;23.396;2023-05-28T06:26:49;8.30;;;7.27;;
8058;SDS011;4072;42.668;23.396;2023-05-28T06:29:18;7.90;;;6.13;;
8058;SDS011;4072;42.668;23.396;2023-05-28T06:31:46;7.57;;;6.73;;
8058;SDS011;4072;42.668;23.396;2023-05-28T06:34:14;6.13;;;5.63;;
8058;SDS011;4072;42.668;23.396;2023-05-28T06:36:43;9.03;;;6.97;;
8058;SDS011;4072;42.668;23.396;2023-05-28T06:39:11;6.20;;;5.60;;
8058;SDS011;4072;42.668;23.396;2023-05-28T06:41:39;7.03;;;6.37;;
8058;SDS011;4072;42.668;23.396;2023-05-28T06:44:07;7.80;;;6.27;;
8058;SDS011;4072;42.668;23.396;2023-05-28T06:46:35;7.87;;;6.93;;
8058;SDS011;4072;42.668;23.396;2023-05-28T06:49:03;8.07;;;7.27;;
8058;SDS011;4072;42.668;23.396;2023-05-28T06:51:31;10.97;;;7.83;;
8058;SDS011;4072;42.668;23.396;2023-05-28T06:54:01;6.83;;;6.00;;
8058;SDS011;4072;42.668;23.396;2023-05-28T06:56:29;6.70;;;6.03;;
8058;SDS011;4072;42.668;23.396;2023-05-28T06:58:57;9.40;;;6.83;;
8058;SDS011;4072;42.668;23.396;2023-05-28T07:01:24;8.27;;;6.73;;
8058;SDS011;4072;42.668;23.396;2023-05-28T07:03:52;7.03;;;6.43;;
8058;SDS011;4072;42.668;23.396;2023-05-28T07:06:21;7.17;;;6.47;;
8058;SDS011;4072;42.668;23.396;2023-05-28T07:08:49;7.73;;;6.50;;
8058;SDS011;4072;42.668;23.396;2023-05-28T07:11:18;7.70;;;7.00;;
8058;SDS011;4072;42.668;23.396;2023-05-28T07:13:46;8.00;;;6.87;;
8058;SDS011;4072;42.668;23.396;2023-05-28T07:16:14;8.53;;;7.73;;
8058;SDS011;4072;42.668;23.396;2023-05-28T07:18:42;8.53;;;6.03;;
8058;SDS011;4072;42.668;23.396;2023-05-28T07:21:10;5.53;;;4.93;;
8058;SDS011;4072;42.668;23.396;2023-05-28T07:23:38;6.53;;;5.63;;
8058;SDS011;4072;42.668;23.396;2023-05-28T07:26:06;8.07;;;7.23;;
8058;SDS011;4072;42.668;23.396;2023-05-28T07:28:36;6.93;;;5.43;;
8058;SDS011;4072;42.668;23.396;2023-05-28T07:31:04;6.50;;;5.90;;
8058;SDS011;4072;42.668;23.396;2023-05-28T07:33:32;9.40;;;4.87;;
8058;SDS011;4072;42.668;23.396;2023-05-28T07:36:00;5.27;;;4.30;;
8058;SDS011;4072;42.668;23.396;2023-05-28T07:38:28;3.60;;;3.30;;
8058;SDS011;4072;42.668;23.396;2023-05-28T07:40:56;5.00;;;3.43;;
8058;SDS011;4072;42.668;23.396;2023-05-28T07:43:24;4.33;;;3.50;;
8058;SDS011;4072;42.668;23.396;2023-05-28T07:45:54;3.90;;;3.60;;
8058;SDS011;4072;42.668;23.396;2023-05-28T07:48:22;6.63;;;4.17;;
8058;SDS011;4072;42.668;23.396;2023-05-28T07:50:50;4.83;;;4.33;;
8058;SDS011;4072;42.668;23.396;2023-05-28T07:53:18;3.27;;;3.07;;
8058;SDS011;4072;42.668;23.396;2023-05-28T07:55:46;3.50;;;3.20;;
8058;SDS011;4072;42.668;23.396;2023-05-28T07:58:14;6.50;;;4.00;;
8058;SDS011;4072;42.668;23.396;2023-05-28T08:00:42;3.80;;;3.13;;
8058;SDS011;4072;42.668;23.396;2023-05-28T08:03:12;4.67;;;3.33;;
8058;SDS011;4072;42.668;23.396;2023-05-28T08:05:40;3.77;;;3.23;;
8058;SDS011;4072;42.668;23.396;2023-05-28T08:08:08;3.93;;;3.63;;
8058;SDS011;4072;42.668;23.396;2023-05-28T08:10:36;4.63;;;3.70;;
8058;SDS011;4072;42.668;23.396;2023-05-28T08:13:04;4.60;;;4.20;;
8058;SDS011;4072;42.668;23.396;2023-05-28T08:15:32;3.10;;;2.80;;
8058;SDS011;4072;42.668;23.396;2023-05-28T08:18:00;5.67;;;4.17;;
8058;SDS011;4072;42.668;23.396;2023-05-28T08:20:29;4.43;;;3.30;;
8058;SDS011;4072;42.668;23.396;2023-05-28T08:22:57;3.50;;;3.20;;
8058;SDS011;4072;42.668;23.396;2023-05-28T08:25:26;3.77;;;3.03;;
8058;SDS011;4072;42.668;23.396;2023-05-28T08:27:53;3.30;;;3.00;;
8058;SDS011;4072;42.668;23.396;2023-05-28T08:30:21;1.97;;;1.87;;
8058;SDS011;4072;42.668;23.396;2023-05-28T08:32:49;3.37;;;2.20;;
8058;SDS011;4072;42.668;23.396;2023-05-28T08:35:17;2.70;;;2.07;;
8058;SDS011;4072;42.668;23.396;2023-05-28T08:37:47;2.10;;;2.00;;
8058;SDS011;4072;42.668;23.396;2023-05-28T08:40:15;4.23;;;2.77;;
8058;SDS011;4072;42.668;23.396;2023-05-28T08:42:43;3.27;;;2.43;;
8058;SDS011;4072;42.668;23.396;2023-05-28T08:45:11;5.23;;;3.67;;
8058;SDS011;4072;42.668;23.396;2023-05-28T08:47:39;2.63;;;2.23;;
8058;SDS011;4072;42.668;23.396;2023-05-28T08:50:08;3.20;;;2.30;;
8058;SDS011;4072;42.668;23.396;2023-05-28T08:52:38;2.67;;;2.47;;
8058;SDS011;4072;42.668;23.396;2023-05-28T08:55:09;4.80;;;2.57;;
8058;SDS011;4072;42.668;23.396;2023-05-28T08:57:36;2.80;;;2.53;;
8058;SDS011;4072;42.668;23.396;2023-05-28T09:00:06;5.70;;;4.40;;
8058;SDS011;4072;42.668;23.396;2023-05-28T09:02:38;2.90;;;2.27;;
8058;SDS011;4072;42.668;23.396;2023-05-28T09:05:06;4.03;;;3.07;;
8058;SDS011;4072;42.668;23.396;2023-05-28T09:07:35;3.83;;;3.50;;
8058;SDS011;4072;42.668;23.396;2023-05-28T09:10:03;3.47;;;2.60;;
8058;SDS011;4072;42.668;23.396;2023-05-28T09:12:33;2.50;;;2.30;;
8058;SDS011;4072;42.668;23.396;2023-05-28T09:15:03;4.10;;;2.70;;
8058;SDS011;4072;42.668;23.396;2023-05-28T09:17:32;3.60;;;3.13;;
8058;SDS011;4072;42.668;23.396;2023-05-28T09:20:08;5.73;;;3.50;;
8058;SDS011;4072;42.668;23.396;2023-05-28T09:22:37;3.77;;;3.30;;
8058;SDS011;4072;42.668;23.396;2023-05-28T09:25:06;4.23;;;3.17;;
8058;SDS011;4072;42.668;23.396;2023-05-28T09:27:36;4.93;;;3.77;;
8058;SDS011;4072;42.668;23.396;2023-05-28T09:30:06;8.40;;;4.07;;
8058;SDS011;4072;42.668;23.396;2023-05-28T09:32:35;4.77;;;3.07;;
8058;SDS011;4072;42.668;23.396;2023-05-28T09:35:04;4.97;;;3.77;;
8058;SDS011;4072;42.668;23.396;2023-05-28T09:37:33;3.20;;;2.90;;
8058;SDS011;4072;42.668;23.396;2023-05-28T09:40:03;5.00;;;3.57;;
8058;SDS011;4072;42.668;23.396;2023-05-28T09:42:37;4.03;;;3.00;;
8058;SDS011;4072;42.668;23.396;2023-05-28T09:45:08;3.47;;;3.10;;
8058;SDS011;4072;42.668;23.396;2023-05-28T09:47:41;3.90;;;3.47;;
8058;SDS011;4072;42.668;23.396;2023-05-28T09:50:10;3.30;;;3.00;;
8058;SDS011;4072;42.668;23.396;2023-05-28T09:52:38;3.43;;;3.13;;
8058;SDS011;4072;42.668;23.396;2023-05-28T09:55:07;3.67;;;2.70;;
8058;SDS011;4072;42.668;23.396;2023-05-28T09:57:42;4.23;;;3.20;;
8058;SDS011;4072;42.668;23.396;2023-05-28T10:00:14;3.37;;;2.97;;
8058;SDS011;4072;42.668;23.396;2023-05-28T10:02:53;3.17;;;2.87;;
8058;SDS011;4072;42.668;23.396;2023-05-28T10:05:26;3.43;;;2.97;;
8058;SDS011;4072;42.668;23.396;2023-05-28T10:07:59;3.13;;;2.83;;
8058;SDS011;4072;42.668;23.396;2023-05-28T10:10:28;2.93;;;2.63;;
8058;SDS011;4072;42.668;23.396;2023-05-28T10:12:59;3.57;;;3.00;;
8058;SDS011;4072;42.668;23.396;2023-05-28T10:15:29;3.33;;;2.17;;
8058;SDS011;4072;42.668;23.396;2023-05-28T10:17:57;3.77;;;3.23;;
8058;SDS011;4072;42.668;23.396;2023-05-28T10:20:26;3.30;;;3.00;;
8058;SDS011;4072;42.668;23.396;2023-05-28T10:22:54;3.57;;;3.27;;
8058;SDS011;4072;42.668;23.396;2023-05-28T10:25:23;4.23;;;3.83;;
8058;SDS011;4072;42.668;23.396;2023-05-28T10:27:59;4.63;;;3.43;;
8058;SDS011;4072;42.668;23.396;2023-05-28T10:30:29;4.17;;;3.87;;
8058;SDS011;4072;42.668;23.396;2023-05-28T10:32:59;4.73;;;4.13;;
8058;SDS011;4072;42.668;23.396;2023-05-28T10:35:27;4.67;;;4.17;;
8058;SDS011;4072;42.668;23.396;2023-05-28T10:38:02;4.30;;;3.90;;
8058;SDS011;4072;42.668;23.396;2023-05-28T10:40:33;5.77;;;3.90;;
8058;SDS011;4072;42.668;23.396;2023-05-28T10:43:03;6.33;;;4.20;;
8058;SDS011;4072;42.668;23.396;2023-05-28T10:45:34;5.17;;;4.67;;
8058;SDS011;4072;42.668;23.396;2023-05-28T10:48:03;6.37;;;5.10;;
8058;SDS011;4072;42.668;23.396;2023-05-28T10:50:39;4.40;;;4.00;;
8058;SDS011;4072;42.668;23.396;2023-05-28T10:53:24;6.17;;;5.30;;
8058;SDS011;4072;42.668;23.396;2023-05-28T10:55:52;5.20;;;4.40;;
8058;SDS011;4072;42.668;23.396;2023-05-28T10:58:24;3.97;;;3.63;;
8058;SDS011;4072;42.668;23.396;2023-05-28T11:00:57;4.80;;;4.40;;
8058;SDS011;4072;42.668;23.396;2023-05-28T11:03:38;5.03;;;4.53;;
8058;SDS011;4072;42.668;23.396;2023-05-28T11:06:07;4.83;;;4.37;;
8058;SDS011;4072;42.668;23.396;2023-05-28T11:08:38;5.27;;;4.77;;
8058;SDS011;4072;42.668;23.396;2023-05-28T11:11:08;5.23;;;4.37;;
8058;SDS011;4072;42.668;23.396;2023-05-28T11:13:43;5.40;;;4.90;;
8058;SDS011;4072;42.668;23.396;2023-05-28T11:16:12;5.17;;;4.60;;
8058;SDS011;4072;42.668;23.396;2023-05-28T11:21:27;6.03;;;5.43;;
8058;SDS011;4072;42.668;23.396;2023-05-28T11:23:59;5.07;;;4.37;;
8058;SDS011;4072;42.668;23.396;2023-05-28T11:26:28;6.73;;;6.03;;
8058;SDS011;4072;42.668;23.396;2023-05-28T11:28:58;6.73;;;4.87;;
8058;SDS011;4072;42.668;23.396;2023-05-28T11:31:28;7.83;;;5.03;;
8058;SDS011;4072;42.668;23.396;2023-05-28T11:33:56;6.17;;;5.63;;
8058;SDS011;4072;42.668;23.396;2023-05-28T11:36:24;7.77;;;6.73;;
8058;SDS011;4072;42.668;23.396;2023-05-28T11:39:00;8.90;;;8.00;;
8058;SDS011;4072;42.668;23.396;2023-05-28T11:41:29;6.97;;;6.13;;
8058;SDS011;4072;42.668;23.396;2023-05-28T11:43:58;6.23;;;5.63;;
8058;SDS011;4072;42.668;23.396;2023-05-28T11:46:26;7.00;;;6.30;;
8058;SDS011;4072;42.668;23.396;2023-05-28T11:48:55;6.53;;;5.87;;
8058;SDS011;4072;42.668;23.396;2023-05-28T11:51:23;6.27;;;5.67;;
8058;SDS011;4072;42.668;23.396;2023-05-28T11:53:51;6.13;;;5.53;;
8058;SDS011;4072;42.668;23.396;2023-05-28T11:56:20;5.70;;;4.07;;
8058;SDS011;4072;42.668;23.396;2023-05-28T11:58:48;6.43;;;5.63;;
8058;SDS011;4072;42.668;23.396;2023-05-28T12:01:17;5.73;;;5.27;;
8058;SDS011;4072;42.668;23.396;2023-05-28T12:03:45;5.27;;;4.87;;
8058;SDS011;4072;42.668;23.396;2023-05-28T12:06:13;7.10;;;6.33;;
8058;SDS011;4072;42.668;23.396;2023-05-28T12:09:01;7.43;;;6.73;;
8058;SDS011;4072;42.668;23.396;2023-05-28T12:11:30;6.83;;;6.23;;
8058;SDS011;4072;42.668;23.396;2023-05-28T12:14:07;8.30;;;6.67;;
8058;SDS011;4072;42.668;23.396;2023-05-28T12:16:43;7.17;;;6.50;;
8058;SDS011;4072;42.668;23.396;2023-05-28T12:19:14;7.70;;;7.00;;
8058;SDS011;4072;42.668;23.396;2023-05-28T12:21:43;7.73;;;7.03;;
8058;SDS011;4072;42.668;23.396;2023-05-28T12:24:11;5.60;;;5.10;;
8058;SDS011;4072;42.668;23.396;2023-05-28T12:26:41;7.73;;;5.90;;
8058;SDS011;4072;42.668;23.396;2023-05-28T12:29:09;7.10;;;6.20;;
8058;SDS011;4072;42.668;23.396;2023-05-28T12:31:38;6.60;;;5.47;;
8058;SDS011;4072;42.668;23.396;2023-05-28T12:34:07;6.20;;;5.70;;
8058;SDS011;4072;42.668;23.396;2023-05-28T12:36:35;6.47;;;5.80;;
8058;SDS011;4072;42.668;23.396;2023-05-28T12:39:03;6.60;;;6.00;;
8058;SDS011;4072;42.668;23.396;2023-05-28T12:41:31;7.57;;;5.13;;
8058;SDS011;4072;42.668;23.396;2023-05-28T12:43:59;5.93;;;5.40;;
8058;SDS011;4072;42.668;23.396;2023-05-28T12:46:27;5.93;;;5.43;;
8058;SDS011;4072;42.668;23.396;2023-05-28T12:48:55;6.33;;;5.80;;
8058;SDS011;4072;42.668;23.396;2023-05-28T12:51:25;5.83;;;5.33;;
8058;SDS011;4072;42.668;23.396;2023-05-28T12:53:53;6.33;;;5.73;;
8058;SDS011;4072;42.668;23.396;2023-05-28T12:56:21;6.13;;;5.60;;
8058;SDS011;4072;42.668;23.396;2023-05-28T12:58:49;7.07;;;6.33;;
8058;SDS011;4072;42.668;23.396;2023-05-28T13:01:18;6.00;;;5.50;;
8058;SDS011;4072;42.668;23.396;2023-05-28T13:03:46;5.27;;;4.77;;
8058;SDS011;4072;42.668;23.396;2023-05-28T13:06:15;4.87;;;4.47;;
8058;SDS011;4072;42.668;23.396;2023-05-28T13:08:45;5.67;;;5.00;;
8058;SDS011;4072;42.668;23.396;2023-05-28T13:11:13;6.37;;;5.80;;
8058;SDS011;4072;42.668;23.396;2023-05-28T13:13:41;6.10;;;5.50;;
8058;SDS011;4072;42.668;23.396;2023-05-28T13:16:09;6.60;;;5.57;;
8058;SDS011;4072;42.668;23.396;2023-05-28T13:18:40;6.83;;;5.33;;
8058;SDS011;4072;42.668;23.396;2023-05-28T13:21:09;6.23;;;5.40;;
8058;SDS011;4072;42.668;23.396;2023-05-28T13:23:37;6.70;;;5.33;;
8058;SDS011;4072;42.668;23.396;2023-05-28T13:26:06;6.10;;;5.57;;
8058;SDS011;4072;42.668;23.396;2023-05-28T13:28:34;5.93;;;5.43;;
8058;SDS011;4072;42.668;23.396;2023-05-28T13:31:02;5.77;;;5.23;;
8058;SDS011;4072;42.668;23.396;2023-05-28T13:33:30;6.60;;;6.00;;
8058;SDS011;4072;42.668;23.396;2023-05-28T13:35:58;11.27;;;6.97;;
8058;SDS011;4072;42.668;23.396;2023-05-28T13:38:27;6.00;;;5.50;;
8058;SDS011;4072;42.668;23.396;2023-05-28T13:40:55;6.03;;;5.37;;
8058;SDS011;4072;42.668;23.396;2023-05-28T13:43:24;6.33;;;5.73;;
8058;SDS011;4072;42.668;23.396;2023-05-28T13:45:52;5.47;;;5.07;;
8058;SDS011;4072;42.668;23.396;2023-05-28T13:48:20;5.73;;;5.30;;
8058;SDS011;4072;42.668;23.396;2023-05-28T13:50:51;5.20;;;4.80;;
8058;SDS011;4072;42.668;23.396;2023-05-28T13:53:20;6.20;;;4.93;;
8058;SDS011;4072;42.668;23.396;2023-05-28T13:55:48;6.50;;;5.90;;
8058;SDS011;4072;42.668;23.396;2023-05-28T13:58:16;7.00;;;5.37;;
8058;SDS011;4072;42.668;23.396;2023-05-28T14:00:46;5.93;;;5.43;;
8058;SDS011;4072;42.668;23.396;2023-05-28T14:03:14;5.50;;;5.00;;
8058;SDS011;4072;42.668;23.396;2023-05-28T14:05:43;7.00;;;6.30;;
8058;SDS011;4072;42.668;23.396;2023-05-28T14:08:11;6.10;;;5.60;;
8058;SDS011;4072;42.668;23.396;2023-05-28T14:10:40;6.23;;;5.73;;
8058;SDS011;4072;42.668;23.396;2023-05-28T14:13:08;4.80;;;4.40;;
8058;SDS011;4072;42.668;23.396;2023-05-28T14:15:36;5.90;;;4.70;;
8058;SDS011;4072;42.668;23.396;2023-05-28T14:18:05;4.83;;;4.43;;
8058;SDS011;4072;42.668;23.396;2023-05-28T14:20:34;5.17;;;4.77;;
8058;SDS011;4072;42.668;23.396;2023-05-28T14:23:02;4.33;;;3.93;;
8058;SDS011;4072;42.668;23.396;2023-05-28T14:25:30;4.80;;;4.40;;
8058;SDS011;4072;42.668;23.396;2023-05-28T14:27:58;4.80;;;4.40;;
8058;SDS011;4072;42.668;23.396;2023-05-28T14:30:37;5.43;;;4.13;;
8058;SDS011;4072;42.668;23.396;2023-05-28T14:33:07;3.93;;;3.63;;
8058;SDS011;4072;42.668;23.396;2023-05-28T14:35:36;5.43;;;4.70;;
8058;SDS011;4072;42.668;23.396;2023-05-28T14:38:05;4.23;;;3.90;;
8058;SDS011;4072;42.668;23.396;2023-05-28T14:40:33;5.73;;;4.57;;
8058;SDS011;4072;42.668;23.396;2023-05-28T14:43:01;5.17;;;4.47;;
8058;SDS011;4072;42.668;23.396;2023-05-28T14:45:29;4.43;;;4.13;;
8058;SDS011;4072;42.668;23.396;2023-05-28T14:47:57;5.27;;;4.87;;
8058;SDS011;4072;42.668;23.396;2023-05-28T14:50:26;4.87;;;4.43;;
8058;SDS011;4072;42.668;23.396;2023-05-28T14:52:54;4.63;;;4.30;;
8058;SDS011;4072;42.668;23.396;2023-05-28T14:55:22;4.93;;;4.53;;
8058;SDS011;4072;42.668;23.396;2023-05-28T14:57:50;5.23;;;4.73;;
8058;SDS011;4072;42.668;23.396;2023-05-28T15:00:18;4.93;;;4.53;;
8058;SDS011;4072;42.668;23.396;2023-05-28T15:02:46;4.93;;;4.40;;
8058;SDS011;4072;42.668;23.396;2023-05-28T15:05:15;7.27;;;4.63;;
8058;SDS011;4072;42.668;23.396;2023-05-28T15:07:44;4.53;;;3.93;;
8058;SDS011;4072;42.668;23.396;2023-05-28T15:10:12;4.33;;;3.83;;
8058;SDS011;4072;42.668;23.396;2023-05-28T15:12:40;3.93;;;3.63;;
8058;SDS011;4072;42.668;23.396;2023-05-28T15:15:08;4.37;;;3.97;;